Time;durP1;ratioP1;P1;durP2;ratioP2;P2;SDS_P1;SDS_P2;PMS_P1;PMS_P2;Temp;Humidity;BMP_temperature;BMP_pressure;BME280_temperature;BME280_humidity;BME280_pressure;Samples;Min_cycle;Max_cycle;Signal;HPM_P1;HPM_P2
2022/04/19 18:59:01;;;;;;;10.27;9.87;;;15.00;57.00;;;;;;6188327;22;20412;-77
2022/04/19 19:01:27;;;;;;;10.20;9.50;;;15.00;57.30;;;;;;6209380;23;20447;-78
2022/04/19 19:03:54;;;;;;;10.10;9.70;;;15.00;57.40;;;;;;6211443;23;20778;-78
2022/04/19 19:06:21;;;;;;;10.13;9.70;;;15.00;57.50;;;;;;6213349;23;20408;-78
2022/04/19 19:08:47;;;;;;;10.23;9.73;;;14.90;57.90;;;;;;6210527;23;20409;-78
2022/04/19 19:11:14;;;;;;;10.07;9.67;;;14.90;58.00;;;;;;6212676;23;20919;-76
2022/04/19 19:13:41;;;;;;;10.00;9.57;;;14.80;58.10;;;;;;6212890;23;20987;-78
2022/04/19 19:16:09;;;;;;;10.10;9.50;;;14.80;58.40;;;;;;6212777;23;20409;-79
2022/04/19 19:18:35;;;;;;;9.70;9.20;;;14.80;57.70;;;;;;6213106;23;20412;-79
2022/04/19 19:21:02;;;;;;;10.00;9.40;;;14.80;57.90;;;;;;6213044;23;20467;-78
2022/04/19 19:23:29;;;;;;;9.63;9.23;;;14.70;58.40;;;;;;6209772;23;20420;-78
2022/04/19 19:25:56;;;;;;;8.70;8.23;;;14.70;58.40;;;;;;6213122;23;20427;-79
2022/04/19 19:28:22;;;;;;;10.17;9.67;;;14.60;58.00;;;;;;6213046;23;20466;-77
2022/04/19 19:30:49;;;;;;;9.07;8.77;;;14.60;57.70;;;;;;6212874;23;20431;-77
2022/04/19 19:33:17;;;;;;;10.03;9.57;;;14.70;57.20;;;;;;6212167;23;20415;-78
2022/04/19 19:35:44;;;;;;;9.40;9.00;;;14.80;56.60;;;;;;6211759;23;20404;-78
2022/04/19 19:38:11;;;;;;;8.70;8.30;;;14.80;56.70;;;;;;6211264;23;20450;-77
2022/04/19 19:40:38;;;;;;;9.53;9.13;;;14.80;56.50;;;;;;6211922;23;20734;-78
2022/04/19 19:43:05;;;;;;;9.63;9.23;;;14.80;56.10;;;;;;6212297;23;20413;-77
2022/04/19 19:45:32;;;;;;;9.17;8.77;;;14.80;56.00;;;;;;6212035;23;20451;-77
2022/04/19 19:47:59;;;;;;;9.50;9.00;;;14.80;55.10;;;;;;6211233;23;20409;-78
2022/04/19 19:50:27;;;;;;;8.77;8.43;;;14.80;55.40;;;;;;6211725;23;20444;-78
2022/04/19 19:52:54;;;;;;;9.13;8.77;;;14.70;55.60;;;;;;6211482;23;20444;-77
2022/04/19 19:55:20;;;;;;;10.70;9.80;;;14.60;56.00;;;;;;6211637;23;20927;-77
2022/04/19 19:57:47;;;;;;;9.00;8.60;;;14.60;56.00;;;;;;6212068;23;20432;-77
2022/04/19 20:00:15;;;;;;;9.33;8.83;;;14.50;55.70;;;;;;6211344;23;20490;-77
2022/04/19 20:02:41;;;;;;;9.10;8.73;;;14.40;55.70;;;;;;6212396;23;20409;-77
2022/04/19 20:05:09;;;;;;;9.30;8.70;;;14.30;55.90;;;;;;6211711;23;20523;-76
2022/04/19 20:07:37;;;;;;;8.47;8.10;;;14.30;55.80;;;;;;6212696;23;20417;-77
2022/04/19 20:10:05;;;;;;;8.40;7.97;;;14.30;55.60;;;;;;6211645;23;20417;-76
2022/04/19 20:12:34;;;;;;;9.60;9.20;;;14.20;55.60;;;;;;6211427;23;20447;-74
2022/04/19 20:15:00;;;;;;;8.97;8.57;;;14.10;55.90;;;;;;6211975;23;20764;-74
2022/04/19 20:17:27;;;;;;;9.40;9.00;;;14.00;55.60;;;;;;6211488;23;20474;-74
2022/04/19 20:19:54;;;;;;;9.43;9.03;;;14.00;55.70;;;;;;6212155;23;20711;-74
2022/04/19 20:22:21;;;;;;;10.97;10.37;;;13.80;55.80;;;;;;6212004;23;20736;-74
2022/04/19 20:24:49;;;;;;;10.83;10.07;;;13.70;56.00;;;;;;6211795;23;20444;-74
2022/04/19 20:27:16;;;;;;;10.10;9.60;;;13.50;55.60;;;;;;6211484;23;20896;-74
2022/04/19 20:29:42;;;;;;;10.40;9.90;;;13.50;55.50;;;;;;6212050;23;20412;-75
2022/04/19 20:32:09;;;;;;;11.03;9.90;;;13.30;55.60;;;;;;6211337;23;20911;-75
2022/04/19 20:34:36;;;;;;;10.87;10.37;;;13.20;55.80;;;;;;6212104;23;20470;-74
2022/04/19 20:37:03;;;;;;;10.60;10.03;;;13.10;56.00;;;;;;6211827;23;20771;-74
2022/04/19 20:39:30;;;;;;;10.53;9.63;;;13.10;55.80;;;;;;6212105;23;20443;-75
2022/04/19 20:41:58;;;;;;;11.13;10.43;;;13.00;56.20;;;;;;6211966;23;20787;-75
2022/04/19 20:44:24;;;;;;;10.10;9.40;;;12.80;56.30;;;;;;6211732;23;20503;-74
2022/04/19 20:52:19;;;;;;;9.70;9.30;;;12.80;55.70;;;;;;6212515;23;20742;-74
2022/04/19 20:54:47;;;;;;;9.70;9.10;;;12.80;55.90;;;;;;6212069;23;20419;-74
2022/04/19 20:57:15;;;;;;;11.27;10.30;;;12.80;55.80;;;;;;6212173;23;20416;-73
2022/04/19 20:59:46;;;;;;;9.70;9.10;;;12.80;56.10;;;;;;6211825;23;20448;-75
2022/04/19 21:02:13;;;;;;;11.13;10.23;;;12.80;56.20;;;;;;6212252;23;20860;-75
2022/04/19 21:04:39;;;;;;;9.77;9.17;;;12.70;56.20;;;;;;6211715;23;20445;-72
2022/04/19 21:07:07;;;;;;;9.70;8.90;;;12.70;56.50;;;;;;6213587;23;20416;-74
2022/04/19 21:09:34;;;;;;;9.70;9.30;;;12.60;56.40;;;;;;6214049;23;20455;-74
2022/04/19 21:12:00;;;;;;;10.33;9.80;;;12.60;56.40;;;;;;6213561;23;20412;-74
2022/04/19 21:14:28;;;;;;;10.93;10.33;;;12.50;56.50;;;;;;6213785;23;20466;-74
2022/04/19 21:16:55;;;;;;;10.20;9.70;;;12.60;56.20;;;;;;6213515;23;20412;-74
2022/04/19 21:19:22;;;;;;;9.57;9.07;;;12.60;55.70;;;;;;6212529;23;20413;-74
2022/04/19 21:21:49;;;;;;;9.50;9.10;;;12.50;55.70;;;;;;6213642;23;20430;-75
2022/04/19 21:24:16;;;;;;;9.73;9.30;;;12.50;55.90;;;;;;6213472;23;20448;-75
2022/04/19 21:26:42;;;;;;;9.50;8.90;;;12.40;55.00;;;;;;6213429;23;20833;-75
2022/04/19 21:29:09;;;;;;;10.03;9.30;;;12.40;55.10;;;;;;6213412;23;20404;-75
2022/04/19 21:31:37;;;;;;;10.17;9.53;;;12.40;55.50;;;;;;6213758;23;20412;-73
2022/04/19 21:34:05;;;;;;;9.90;9.40;;;12.20;55.00;;;;;;6213502;23;20880;-74
2022/04/19 21:36:32;;;;;;;10.10;9.50;;;12.10;54.00;;;;;;6213718;23;20407;-74
2022/04/19 21:38:59;;;;;;;9.73;9.23;;;12.10;54.00;;;;;;6213445;23;20787;-73
2022/04/19 21:41:25;;;;;;;10.43;9.70;;;12.10;54.10;;;;;;6213457;23;20409;-73
2022/04/19 21:43:52;;;;;;;10.60;9.93;;;11.90;54.30;;;;;;6213067;23;20413;-73
2022/04/19 21:46:19;;;;;;;9.83;9.13;;;11.80;54.50;;;;;;6212910;23;21004;-73
2022/04/19 21:48:47;;;;;;;10.27;9.57;;;11.70;54.60;;;;;;6213947;23;20418;-74
2022/04/19 21:51:13;;;;;;;10.47;9.83;;;11.60;54.80;;;;;;6213351;23;20419;-73
2022/04/19 21:53:40;;;;;;;9.00;8.60;;;11.40;55.20;;;;;;6212732;23;20966;-73
2022/04/19 21:56:07;;;;;;;8.90;8.47;;;11.30;55.90;;;;;;6212827;23;21005;-73
2022/04/19 21:58:33;;;;;;;9.47;9.07;;;11.00;56.40;;;;;;6213233;23;20429;-73
2022/04/19 22:01:16;;;;;;;9.57;9.17;;;10.90;56.50;;;;;;6212612;23;20454;-73
2022/04/19 22:03:42;;;;;;;9.53;9.03;;;10.80;57.00;;;;;;6212928;23;20416;-73
2022/04/19 22:06:11;;;;;;;8.90;8.47;;;10.80;56.20;;;;;;6212639;23;20447;-73
2022/04/19 22:08:37;;;;;;;9.30;8.70;;;10.80;56.30;;;;;;6213219;23;20416;-73
2022/04/19 22:11:05;;;;;;;9.17;8.67;;;10.70;57.00;;;;;;6213082;23;20439;-72
2022/04/19 22:13:32;;;;;;;9.43;9.00;;;10.60;57.00;;;;;;6213239;23;20412;-72
2022/04/19 22:15:58;;;;;;;9.57;9.10;;;10.60;56.70;;;;;;6212968;23;20404;-72
2022/04/19 22:18:26;;;;;;;8.80;8.40;;;10.60;57.40;;;;;;6212523;23;20414;-73
2022/04/19 22:20:54;;;;;;;10.10;9.40;;;10.50;57.70;;;;;;6212099;23;20419;-73
2022/04/19 22:23:22;;;;;;;9.10;8.70;;;10.40;57.90;;;;;;6213201;23;20488;-73
2022/04/19 22:25:49;;;;;;;9.70;9.20;;;10.40;57.70;;;;;;6212914;23;20449;-72
2022/04/19 22:28:16;;;;;;;10.17;9.50;;;10.40;57.40;;;;;;6213113;23;20533;-73
2022/04/19 22:30:43;;;;;;;10.00;9.40;;;10.30;57.30;;;;;;6212763;23;20443;-73
2022/04/19 22:33:09;;;;;;;9.77;9.30;;;10.20;57.60;;;;;;6212468;23;20952;-72
2022/04/19 22:35:36;;;;;;;9.13;8.73;;;10.30;57.60;;;;;;6213518;23;20405;-72
2022/04/19 22:38:03;;;;;;;10.13;9.37;;;10.30;57.20;;;;;;6213345;23;20797;-72
2022/04/19 22:40:31;;;;;;;11.13;9.73;;;10.30;56.80;;;;;;6213020;23;20408;-72
2022/04/19 22:42:58;;;;;;;9.40;8.83;;;10.30;56.80;;;;;;6212944;23;20908;-72
2022/04/19 22:45:25;;;;;;;9.33;8.93;;;10.30;56.90;;;;;;6213363;23;20448;-71
2022/04/19 22:47:52;;;;;;;10.60;10.10;;;10.30;56.60;;;;;;6213349;23;20424;-72
2022/04/19 22:50:19;;;;;;;9.57;9.17;;;10.20;56.80;;;;;;6214006;23;20407;-72
2022/04/19 22:52:46;;;;;;;9.47;9.07;;;10.10;57.00;;;;;;6213413;23;20415;-71
2022/04/19 22:55:13;;;;;;;9.73;9.33;;;10.00;57.10;;;;;;6213660;23;20418;-71
2022/04/19 22:57:41;;;;;;;10.20;9.50;;;9.90;58.80;;;;;;6212423;23;20411;-72
2022/04/19 23:00:13;;;;;;;9.53;9.03;;;9.90;58.80;;;;;;6212123;23;20826;-72
2022/04/19 23:02:40;;;;;;;10.10;9.40;;;9.90;58.70;;;;;;6213631;23;20452;-72
2022/04/19 23:05:09;;;;;;;10.13;9.53;;;10.00;57.70;;;;;;6213453;23;20445;-72
2022/04/19 23:07:35;;;;;;;9.37;8.97;;;10.00;58.20;;;;;;6213373;23;20440;-72
2022/04/19 23:10:02;;;;;;;9.73;9.23;;;9.90;59.40;;;;;;6213339;23;20412;-72
2022/04/19 23:12:29;;;;;;;9.97;9.47;;;9.90;59.10;;;;;;6213478;23;20412;-73
2022/04/19 23:14:57;;;;;;;9.10;8.70;;;9.80;59.70;;;;;;6213407;23;20401;-73
2022/04/19 23:17:24;;;;;;;9.60;9.10;;;9.80;60.30;;;;;;6213268;23;20741;-73
2022/04/19 23:19:51;;;;;;;10.30;9.70;;;9.80;61.60;;;;;;6213461;23;20417;-73
2022/04/19 23:22:17;;;;;;;10.17;9.67;;;9.80;62.80;;;;;;6213404;23;20486;-73
2022/04/19 23:24:45;;;;;;;10.50;9.90;;;9.80;63.90;;;;;;6213315;23;20404;-73
2022/04/19 23:30:00;;;;;;;10.80;10.30;;;10.00;66.00;;;;;;6174300;23;20428;-72
2022/04/19 23:32:27;;;;;;;10.07;9.57;;;10.00;67.20;;;;;;6213165;23;20471;-73
2022/04/19 23:34:53;;;;;;;10.63;9.93;;;10.00;68.40;;;;;;6212870;23;20409;-73
2022/04/19 23:37:20;;;;;;;10.80;10.20;;;10.00;69.70;;;;;;6213386;23;20401;-73
2022/04/19 23:39:47;;;;;;;12.27;11.47;;;9.90;72.20;;;;;;6213792;23;20411;-73
2022/04/19 23:42:13;;;;;;;10.30;9.80;;;9.90;73.30;;;;;;6213431;23;20413;-73
2022/04/19 23:44:41;;;;;;;11.80;11.00;;;9.90;74.60;;;;;;6213238;23;20479;-73
